createdAt,value
2024-01-20T00:00:16.977Z,23.70
2024-01-20T00:02:47.989Z,24.97
2024-01-20T00:05:19.105Z,20.60
2024-01-20T00:07:47.653Z,24.93
2024-01-20T00:10:15.895Z,22.90
2024-01-20T00:12:45.721Z,22.17
2024-01-20T00:15:14.505Z,24.43
2024-01-20T00:17:43.124Z,23.10
2024-01-20T00:20:13.840Z,21.77
2024-01-20T00:22:42.621Z,21.33
2024-01-20T00:25:11.736Z,22.03
2024-01-20T00:27:40.599Z,22.10
2024-01-20T00:30:11.574Z,21.07
2024-01-20T00:32:40.610Z,21.93
2024-01-20T00:35:10.001Z,21.73
2024-01-20T00:37:40.044Z,25.67
2024-01-20T00:40:09.254Z,21.57
2024-01-20T00:42:37.315Z,22.70
2024-01-20T00:45:06.063Z,21.43
2024-01-20T00:47:37.758Z,22.60
2024-01-20T00:50:08.741Z,23.37
2024-01-20T00:52:36.860Z,22.87
2024-01-20T00:55:05.646Z,23.10
2024-01-20T00:57:33.873Z,22.53
2024-01-20T01:00:01.962Z,21.20
2024-01-20T01:02:30.326Z,22.43
2024-01-20T01:04:59.685Z,21.93
2024-01-20T01:07:27.702Z,25.67
2024-01-20T01:09:56.201Z,27.43
2024-01-20T01:12:24.482Z,20.87
2024-01-20T01:14:55.456Z,21.63
2024-01-20T01:17:23.754Z,27.17
2024-01-20T01:19:54.879Z,23.40
2024-01-20T01:22:27.023Z,22.37
2024-01-20T01:24:55.370Z,22.20
2024-01-20T01:27:23.523Z,23.93
2024-01-20T01:29:51.720Z,25.07
2024-01-20T01:32:20.568Z,19.80
2024-01-20T01:34:48.774Z,22.77
2024-01-20T01:37:16.976Z,21.67
2024-01-20T01:39:46.900Z,22.93
2024-01-20T01:42:16.423Z,25.27
2024-01-20T01:44:44.403Z,24.60
2024-01-20T01:47:13.160Z,21.93
2024-01-20T01:49:41.589Z,21.97
2024-01-20T01:52:10.078Z,23.17
2024-01-20T01:54:38.146Z,22.80
2024-01-20T01:57:08.254Z,22.40
2024-01-20T01:59:39.319Z,20.80
2024-01-20T02:02:09.058Z,22.37
2024-01-20T02:04:37.075Z,20.83
2024-01-20T02:07:07.217Z,22.50
2024-01-20T02:09:35.359Z,21.83
2024-01-20T02:12:04.884Z,24.10
2024-01-20T02:14:35.482Z,21.63
2024-01-20T02:17:03.885Z,21.43
2024-01-20T02:19:31.852Z,24.47
2024-01-20T02:22:00.065Z,21.60
2024-01-20T02:24:29.423Z,24.60
2024-01-20T02:26:57.777Z,21.23
2024-01-20T02:29:25.739Z,22.20
2024-01-20T02:31:53.894Z,23.60
2024-01-20T02:34:21.840Z,22.10
2024-01-20T02:36:50.012Z,20.60
2024-01-20T02:39:18.171Z,22.90
2024-01-20T02:41:48.681Z,21.93
2024-01-20T02:44:16.959Z,23.93
2024-01-20T02:46:44.871Z,30.10
2024-01-20T02:49:13.684Z,27.70
2024-01-20T02:51:42.046Z,23.40
2024-01-20T02:54:12.467Z,21.10
2024-01-20T02:56:40.411Z,24.90
2024-01-20T02:59:10.154Z,19.77
2024-01-20T03:01:38.125Z,22.40
2024-01-20T03:04:06.193Z,22.20
2024-01-20T03:06:36.195Z,27.70
2024-01-20T03:09:04.344Z,21.70
2024-01-20T03:11:34.066Z,24.20
2024-01-20T03:14:02.031Z,21.90
2024-01-20T03:16:31.460Z,21.23
2024-01-20T03:19:07.083Z,21.93
2024-01-20T03:21:35.483Z,21.53
2024-01-20T03:24:03.524Z,20.93
2024-01-20T03:26:33.948Z,25.83
2024-01-20T03:29:04.367Z,20.97
2024-01-20T03:31:36.571Z,22.37
2024-01-20T03:34:07.520Z,23.60
2024-01-20T03:36:35.478Z,22.00
2024-01-20T03:39:03.779Z,22.03
2024-01-20T03:41:34.161Z,23.23
2024-01-20T03:44:02.235Z,25.63
2024-01-20T03:46:30.152Z,21.40
2024-01-20T03:49:03.010Z,20.53
2024-01-20T03:51:31.257Z,21.23
2024-01-20T03:53:59.568Z,20.57
2024-01-20T03:56:27.619Z,21.80
2024-01-20T03:58:55.794Z,33.67
2024-01-20T04:01:24.151Z,21.73
2024-01-20T04:03:53.516Z,21.60
2024-01-20T04:06:23.008Z,22.30
2024-01-20T04:08:51.026Z,22.50
2024-01-20T04:11:19.005Z,21.80
2024-01-20T04:13:49.877Z,21.23
2024-01-20T04:16:20.717Z,21.73
2024-01-20T04:18:48.804Z,20.57
2024-01-20T04:21:19.013Z,25.43
2024-01-20T04:23:48.556Z,20.73
2024-01-20T04:26:17.299Z,22.70
2024-01-20T04:28:45.336Z,21.20
2024-01-20T04:31:13.331Z,21.20
2024-01-20T04:33:42.157Z,20.47
2024-01-20T04:36:10.439Z,21.30
2024-01-20T04:38:38.568Z,22.40
2024-01-20T04:41:07.891Z,21.43
2024-01-20T04:43:38.486Z,22.80
2024-01-20T04:46:06.570Z,20.43
2024-01-20T04:48:35.300Z,22.70
2024-01-20T04:51:03.558Z,21.30
2024-01-20T04:53:31.523Z,22.40
2024-01-20T04:55:59.521Z,21.27
2024-01-20T04:58:28.915Z,21.93
2024-01-20T05:00:57.324Z,21.27
2024-01-20T05:03:25.542Z,20.20
2024-01-20T05:05:53.702Z,20.67
2024-01-20T05:08:22.706Z,20.80
2024-01-20T05:10:50.796Z,21.17
2024-01-20T05:13:18.780Z,23.73
2024-01-20T05:15:48.235Z,23.50
2024-01-20T05:18:16.411Z,20.80
2024-01-20T05:20:44.432Z,20.37
2024-01-20T05:23:12.956Z,20.90
2024-01-20T05:25:41.075Z,20.70
2024-01-20T05:28:11.448Z,22.90
2024-01-20T05:30:42.054Z,21.37
2024-01-20T05:33:11.868Z,20.57
2024-01-20T05:35:47.081Z,21.27
2024-01-20T05:38:17.660Z,20.10
2024-01-20T05:40:46.221Z,20.60
2024-01-20T05:43:15.204Z,22.13
2024-01-20T05:45:43.452Z,21.67
2024-01-20T05:48:13.831Z,21.77
2024-01-20T05:50:44.807Z,20.57
2024-01-20T05:53:16.838Z,21.10
2024-01-20T05:55:44.979Z,21.03
2024-01-20T05:58:16.230Z,23.20
2024-01-20T06:00:44.287Z,21.20
2024-01-20T06:03:14.052Z,22.70
2024-01-20T06:05:44.654Z,21.27
2024-01-20T06:08:12.652Z,20.87
2024-01-20T06:10:44.259Z,20.70
2024-01-20T06:13:12.743Z,21.57
2024-01-20T06:15:40.989Z,22.27
2024-01-20T06:18:09.488Z,20.67
2024-01-20T06:20:39.195Z,21.13
2024-01-20T06:23:10.163Z,21.23
2024-01-20T06:25:45.613Z,20.80
2024-01-20T06:28:13.560Z,21.57
2024-01-20T06:30:41.614Z,20.97
2024-01-20T06:33:10.069Z,21.70
2024-01-20T06:35:42.148Z,22.50
2024-01-20T06:38:10.282Z,21.27
2024-01-20T06:40:38.231Z,20.90
2024-01-20T06:43:07.572Z,23.13
2024-01-20T06:45:36.277Z,22.43
2024-01-20T06:48:06.235Z,22.60
2024-01-20T06:50:34.407Z,21.07
2024-01-20T06:53:04.245Z,21.70
2024-01-20T06:55:32.611Z,21.47
2024-01-20T06:58:00.738Z,21.13
2024-01-20T07:00:28.790Z,21.10
2024-01-20T07:03:00.437Z,23.80
2024-01-20T07:05:31.560Z,21.37
2024-01-20T07:07:59.833Z,20.77
2024-01-20T07:10:29.226Z,22.67
2024-01-20T07:12:57.341Z,22.90
2024-01-20T07:15:27.957Z,22.50
2024-01-20T07:17:57.556Z,21.70
2024-01-20T07:20:26.330Z,22.80
2024-01-20T07:22:57.392Z,21.43
2024-01-20T07:25:26.511Z,22.60
2024-01-20T07:27:56.009Z,29.70
2024-01-20T07:30:24.328Z,22.30
2024-01-20T07:35:29.276Z,21.90
2024-01-20T07:37:57.539Z,22.57
2024-01-20T07:40:25.525Z,22.30
2024-01-20T07:42:53.822Z,22.20
2024-01-20T07:45:24.156Z,22.43
2024-01-20T07:47:52.676Z,22.20
2024-01-20T07:50:22.362Z,22.70
2024-01-20T07:52:50.419Z,25.13
2024-01-20T07:55:18.561Z,20.90
2024-01-20T07:57:46.846Z,23.33
2024-01-20T08:00:15.709Z,22.40
2024-01-20T08:02:45.272Z,20.80
2024-01-20T08:05:13.569Z,25.73
2024-01-20T08:07:41.645Z,20.77
2024-01-20T08:10:10.393Z,21.40
2024-01-20T08:12:38.813Z,28.07
2024-01-20T08:15:08.511Z,21.00
2024-01-20T08:17:36.706Z,22.17
2024-01-20T08:20:08.228Z,21.73
2024-01-20T08:22:36.544Z,20.87
2024-01-20T08:25:06.237Z,21.00
2024-01-20T08:27:34.269Z,21.50
2024-01-20T08:30:02.667Z,21.07
2024-01-20T08:32:31.025Z,23.63
2024-01-20T08:34:59.475Z,20.53
2024-01-20T08:37:28.772Z,20.80
2024-01-20T08:39:56.810Z,22.30
2024-01-20T08:42:28.237Z,20.37
2024-01-20T08:44:56.689Z,20.20
2024-01-20T08:47:25.310Z,20.83
2024-01-20T08:49:56.231Z,19.70
2024-01-20T08:52:24.573Z,20.23
2024-01-20T08:54:54.817Z,21.07
2024-01-20T08:57:23.044Z,20.10
2024-01-20T08:59:51.147Z,22.03
2024-01-20T09:02:19.492Z,21.47
2024-01-20T09:04:47.622Z,22.53
2024-01-20T09:07:15.796Z,19.00
2024-01-20T09:09:48.512Z,19.07
2024-01-20T09:12:20.297Z,19.40
2024-01-20T09:14:50.352Z,20.13
2024-01-20T09:17:18.609Z,19.07
2024-01-20T09:19:48.663Z,19.80
2024-01-20T09:22:18.525Z,19.80
2024-01-20T09:24:46.639Z,22.83
2024-01-20T09:27:14.698Z,19.13
2024-01-20T09:29:44.221Z,20.00
2024-01-20T09:32:15.253Z,19.50
2024-01-20T09:34:43.475Z,19.40
2024-01-20T09:37:12.587Z,18.70
2024-01-20T09:39:40.941Z,18.80
2024-01-20T09:42:09.561Z,18.63
2024-01-20T09:44:37.708Z,19.57
2024-01-20T09:47:10.641Z,18.60
2024-01-20T09:49:38.923Z,21.30
2024-01-20T09:52:11.231Z,19.07
2024-01-20T09:54:42.565Z,18.63
2024-01-20T09:57:13.017Z,18.20
2024-01-20T09:59:42.587Z,18.30
2024-01-20T10:02:13.289Z,18.37
2024-01-20T10:04:42.068Z,18.70
2024-01-20T10:07:10.216Z,19.00
2024-01-20T10:09:43.227Z,18.30
2024-01-20T10:12:11.367Z,20.73
2024-01-20T10:14:39.837Z,19.20
2024-01-20T10:17:08.164Z,18.20
2024-01-20T10:19:38.953Z,18.03
2024-01-20T10:22:09.516Z,17.80
2024-01-20T10:24:47.685Z,19.07
2024-01-20T10:27:18.520Z,17.60
2024-01-20T10:29:50.237Z,18.33
2024-01-20T10:32:19.096Z,18.93
2024-01-20T10:34:54.004Z,17.67
2024-01-20T10:37:24.624Z,18.80
2024-01-20T10:39:54.024Z,17.70
2024-01-20T10:42:22.768Z,17.80
2024-01-20T10:44:54.572Z,17.93
2024-01-20T10:47:32.286Z,16.50
2024-01-20T10:50:05.698Z,18.53
2024-01-20T10:52:35.014Z,17.03
2024-01-20T10:55:04.113Z,17.63
2024-01-20T10:57:33.882Z,17.83
2024-01-20T11:00:05.516Z,16.77
2024-01-20T11:02:35.266Z,17.87
2024-01-20T11:05:19.073Z,17.90
2024-01-20T11:07:57.261Z,18.40
2024-01-20T11:10:25.914Z,16.20
2024-01-20T11:13:05.861Z,17.80
2024-01-20T11:15:34.353Z,17.63
2024-01-20T11:18:04.088Z,20.00
2024-01-20T11:20:34.937Z,16.93
2024-01-20T11:23:10.269Z,17.47
2024-01-20T11:25:38.649Z,16.13
2024-01-20T11:28:06.992Z,15.80
2024-01-20T11:30:38.518Z,16.20
2024-01-20T11:33:07.692Z,15.80
2024-01-20T11:35:39.480Z,16.13
2024-01-20T11:38:09.418Z,14.63
2024-01-20T11:40:46.553Z,16.27
2024-01-20T11:43:14.911Z,16.30
2024-01-20T11:45:44.887Z,15.83
2024-01-20T11:48:15.245Z,15.13
2024-01-20T11:50:45.164Z,15.70
2024-01-20T11:53:13.309Z,16.17
2024-01-20T11:55:53.973Z,15.53
2024-01-20T11:58:23.271Z,16.70
2024-01-20T12:00:57.385Z,15.90
2024-01-20T12:03:27.854Z,16.33
2024-01-20T12:05:57.953Z,18.03
2024-01-20T12:08:26.571Z,17.20
2024-01-20T12:10:54.618Z,15.53
2024-01-20T12:13:23.039Z,15.50
2024-01-20T12:15:51.473Z,16.63
2024-01-20T12:18:19.914Z,18.30
2024-01-20T12:20:48.494Z,18.17
2024-01-20T12:23:24.198Z,16.40
2024-01-20T12:25:54.569Z,15.10
2024-01-20T12:28:23.703Z,15.20
2024-01-20T12:30:52.900Z,16.03
2024-01-20T12:33:21.440Z,16.07
2024-01-20T12:35:49.498Z,16.43
2024-01-20T12:38:17.688Z,16.67
2024-01-20T12:40:47.111Z,15.43
2024-01-20T12:43:15.409Z,14.30
2024-01-20T12:45:43.927Z,15.60
2024-01-20T12:48:14.160Z,14.60
2024-01-20T12:50:42.361Z,14.60
2024-01-20T12:53:10.379Z,14.23
2024-01-20T12:55:38.605Z,15.23
2024-01-20T12:58:08.138Z,14.57
2024-01-20T13:00:36.298Z,17.17
2024-01-20T13:03:04.956Z,14.60
2024-01-20T13:05:33.450Z,16.03
2024-01-20T13:08:01.724Z,21.93
2024-01-20T13:10:32.600Z,14.97
2024-01-20T13:13:00.632Z,16.10
2024-01-20T13:15:31.229Z,18.50
2024-01-20T13:17:59.611Z,14.77
2024-01-20T13:20:30.109Z,15.13
2024-01-20T13:22:58.535Z,14.60
2024-01-20T13:25:29.962Z,18.37
2024-01-20T13:27:59.402Z,16.40
2024-01-20T13:30:30.392Z,15.27
2024-01-20T13:33:00.496Z,15.50
2024-01-20T13:35:28.863Z,14.60
2024-01-20T13:37:56.836Z,15.70
2024-01-20T13:40:26.827Z,15.23
2024-01-20T13:42:54.936Z,14.50
2024-01-20T13:45:23.581Z,16.37
2024-01-20T13:47:51.924Z,34.17
2024-01-20T13:50:21.795Z,20.60
2024-01-20T13:52:50.563Z,15.70
2024-01-20T13:55:19.638Z,14.57
2024-01-20T13:57:47.744Z,14.40
2024-01-20T14:00:16.672Z,16.33
2024-01-20T14:02:45.877Z,20.23
2024-01-20T14:05:14.304Z,15.30
2024-01-20T14:07:43.840Z,15.53
2024-01-20T14:10:12.631Z,13.53
2024-01-20T14:12:41.074Z,16.20
2024-01-20T14:15:09.942Z,14.80
2024-01-20T14:17:38.094Z,16.63
2024-01-20T14:20:07.802Z,15.10
2024-01-20T14:22:35.898Z,14.40
2024-01-20T14:25:08.549Z,14.60
2024-01-20T14:27:36.707Z,14.80
2024-01-20T14:30:05.330Z,15.90
2024-01-20T14:32:33.836Z,14.20
2024-01-20T14:35:02.852Z,15.60
2024-01-20T14:37:34.028Z,14.10
2024-01-20T14:40:02.210Z,15.20
2024-01-20T14:42:31.806Z,15.43
2024-01-20T14:45:02.640Z,16.33
2024-01-20T14:47:30.830Z,15.93
2024-01-20T14:50:02.126Z,16.40
2024-01-20T14:52:30.524Z,14.30
2024-01-20T14:55:03.951Z,14.13
2024-01-20T14:57:34.127Z,15.03
2024-01-20T15:00:04.756Z,14.10
2024-01-20T15:02:35.518Z,15.27
2024-01-20T15:05:04.248Z,14.57
2024-01-20T15:07:34.850Z,14.10
2024-01-20T15:10:03.464Z,14.57
2024-01-20T15:12:33.419Z,21.13
2024-01-20T15:15:01.828Z,14.20
2024-01-20T15:17:31.412Z,16.63
2024-01-20T15:19:59.598Z,14.17
2024-01-20T15:22:28.221Z,15.00
2024-01-20T15:24:56.524Z,14.83
2024-01-20T15:27:25.383Z,16.03
2024-01-20T15:29:54.855Z,14.57
2024-01-20T15:32:24.936Z,14.80
2024-01-20T15:34:54.349Z,14.70
2024-01-20T15:37:25.406Z,15.93
2024-01-20T15:39:53.778Z,14.83
2024-01-20T15:42:22.120Z,15.00
2024-01-20T15:44:50.451Z,17.00
2024-01-20T15:47:20.872Z,14.37
2024-01-20T15:49:49.112Z,16.10
2024-01-20T15:52:17.534Z,17.93
2024-01-20T15:54:48.686Z,14.53
2024-01-20T15:57:19.050Z,16.33
2024-01-20T15:59:47.167Z,15.33
2024-01-20T16:02:17.851Z,14.70
2024-01-20T16:04:48.202Z,15.40
2024-01-20T16:07:16.693Z,15.43
2024-01-20T16:09:45.246Z,15.30
2024-01-20T16:12:13.559Z,15.97
2024-01-20T16:14:41.848Z,17.00
2024-01-20T16:17:10.259Z,15.73
2024-01-20T16:19:41.566Z,17.23
2024-01-20T16:22:11.114Z,16.23
2024-01-20T16:24:39.850Z,15.50
2024-01-20T16:27:08.024Z,14.60
2024-01-20T16:29:36.258Z,15.77
2024-01-20T16:32:06.772Z,16.93
2024-01-20T16:34:36.711Z,16.87
2024-01-20T16:37:05.227Z,15.40
2024-01-20T16:39:38.042Z,15.43
2024-01-20T16:42:06.447Z,23.17
2024-01-20T16:44:34.655Z,19.30
2024-01-20T16:47:06.710Z,16.53
2024-01-20T16:49:38.111Z,17.00
2024-01-20T16:52:07.583Z,17.93
2024-01-20T16:54:37.129Z,16.40
2024-01-20T16:57:13.351Z,18.27
2024-01-20T16:59:42.185Z,19.20
2024-01-20T17:02:10.235Z,27.47
2024-01-20T17:04:39.627Z,22.80
2024-01-20T17:07:07.891Z,15.30
2024-01-20T17:09:40.289Z,19.53
2024-01-20T17:12:09.165Z,18.97
2024-01-20T17:14:38.181Z,28.50
2024-01-20T17:17:07.543Z,20.80
2024-01-20T17:19:40.087Z,22.67
2024-01-20T17:22:11.047Z,19.30
2024-01-20T17:24:40.522Z,18.67
2024-01-20T17:27:08.807Z,18.47
2024-01-20T17:29:37.216Z,18.10
2024-01-20T17:32:09.593Z,16.37
2024-01-20T17:34:37.798Z,20.53
2024-01-20T17:37:06.911Z,20.23
2024-01-20T17:39:38.407Z,17.20
2024-01-20T17:42:11.007Z,18.33
2024-01-20T17:44:40.072Z,21.63
2024-01-20T17:47:10.574Z,24.73
2024-01-20T17:49:39.247Z,27.07
2024-01-20T17:52:08.245Z,18.03
2024-01-20T17:54:36.838Z,17.60
2024-01-20T17:57:05.823Z,18.70
2024-01-20T17:59:37.640Z,22.37
2024-01-20T18:02:05.995Z,20.33
2024-01-20T18:04:36.708Z,20.10
2024-01-20T18:07:08.387Z,21.60
2024-01-20T18:09:36.907Z,19.33
2024-01-20T18:12:05.428Z,19.30
2024-01-20T18:14:35.338Z,20.17
2024-01-20T18:17:06.535Z,19.77
2024-01-20T18:19:35.067Z,19.37
2024-01-20T18:22:03.399Z,17.20
2024-01-20T18:24:33.063Z,19.07
2024-01-20T18:27:01.350Z,20.80
2024-01-20T18:29:29.710Z,18.83
2024-01-20T18:32:03.024Z,22.73
2024-01-20T18:34:31.186Z,19.00
2024-01-20T18:36:59.321Z,19.17
2024-01-20T18:39:27.715Z,20.77
2024-01-20T18:41:55.859Z,21.40
2024-01-20T18:44:24.299Z,23.17
2024-01-20T18:46:52.631Z,20.43
2024-01-20T18:49:22.461Z,20.23
2024-01-20T18:51:51.795Z,19.70
2024-01-20T18:54:21.878Z,22.17
2024-01-20T18:56:54.303Z,22.93
2024-01-20T18:59:22.736Z,26.27
2024-01-20T19:01:51.409Z,23.73
2024-01-20T19:04:22.849Z,28.20
2024-01-20T19:06:54.969Z,28.07
2024-01-20T19:09:23.485Z,18.80
2024-01-20T19:11:51.681Z,19.13
2024-01-20T19:14:20.042Z,22.23
2024-01-20T19:16:48.254Z,25.03
2024-01-20T19:19:16.435Z,36.27
2024-01-20T19:21:45.131Z,20.47
2024-01-20T19:24:17.319Z,24.67
2024-01-20T19:26:45.700Z,26.80
2024-01-20T19:29:13.966Z,24.07
2024-01-20T19:31:44.607Z,22.30
2024-01-20T19:34:12.948Z,31.63
2024-01-20T19:36:41.195Z,21.00
2024-01-20T19:39:09.745Z,19.43
2024-01-20T19:41:39.440Z,19.67
2024-01-20T19:44:08.187Z,20.80
2024-01-20T19:46:40.794Z,20.03
2024-01-20T19:49:09.237Z,19.07
2024-01-20T19:51:41.375Z,20.40
2024-01-20T19:54:13.558Z,19.10
2024-01-20T19:56:47.894Z,20.80
2024-01-20T19:59:17.687Z,20.33
2024-01-20T20:01:47.937Z,19.20
2024-01-20T20:04:17.777Z,18.17
2024-01-20T20:06:46.784Z,19.63
2024-01-20T20:09:15.630Z,21.23
2024-01-20T20:11:45.477Z,24.90
2024-01-20T20:14:14.164Z,19.73
2024-01-20T20:16:42.910Z,19.80
2024-01-20T20:19:13.440Z,22.87
2024-01-20T20:21:42.267Z,20.23
2024-01-20T20:24:12.394Z,19.07
2024-01-20T20:26:42.781Z,19.23
2024-01-20T20:29:19.247Z,19.40
2024-01-20T20:31:48.486Z,21.90
2024-01-20T20:34:16.820Z,20.77
2024-01-20T20:36:45.147Z,20.93
2024-01-20T20:39:13.962Z,19.03
2024-01-20T20:41:43.967Z,20.07
2024-01-20T20:44:12.341Z,21.80
2024-01-20T20:46:49.545Z,19.43
2024-01-20T20:49:17.829Z,20.90
2024-01-20T20:51:46.066Z,19.00
2024-01-20T20:54:14.310Z,20.57
2024-01-20T20:56:42.545Z,21.43
2024-01-20T20:59:13.470Z,18.87
2024-01-20T21:01:42.023Z,19.47
2024-01-20T21:04:14.461Z,20.43
2024-01-20T21:06:42.735Z,22.77
2024-01-20T21:09:12.196Z,19.43
2024-01-20T21:11:43.017Z,19.67
2024-01-20T21:14:11.361Z,26.60
2024-01-20T21:16:39.415Z,23.90
2024-01-20T21:19:07.826Z,25.20
2024-01-20T21:21:37.549Z,24.83
2024-01-20T21:24:06.189Z,18.93
2024-01-20T21:26:36.057Z,20.77
2024-01-20T21:29:07.408Z,20.57
2024-01-20T21:31:38.508Z,19.27
2024-01-20T21:34:06.755Z,21.93
2024-01-20T21:36:34.872Z,21.70
2024-01-20T21:39:10.281Z,22.20
2024-01-20T21:41:38.677Z,24.50
2024-01-20T21:44:07.861Z,19.60
2024-01-20T21:46:37.421Z,21.20
2024-01-20T21:49:06.168Z,21.63
2024-01-20T21:51:34.443Z,23.17
2024-01-20T21:54:04.255Z,20.90
2024-01-20T21:56:32.403Z,19.57
2024-01-20T21:59:00.561Z,20.67
2024-01-20T22:01:28.783Z,20.60
2024-01-20T22:03:57.028Z,20.33
2024-01-20T22:06:25.406Z,21.27
2024-01-20T22:08:53.731Z,22.23
2024-01-20T22:11:23.309Z,20.33
2024-01-20T22:13:51.623Z,21.57
2024-01-20T22:16:20.045Z,27.83
2024-01-20T22:18:48.373Z,20.57
2024-01-20T22:21:16.974Z,20.73
2024-01-20T22:23:45.239Z,22.10
2024-01-20T22:26:17.112Z,20.43
2024-01-20T22:28:47.613Z,32.43
2024-01-20T22:31:16.001Z,22.90
2024-01-20T22:33:45.521Z,22.67
2024-01-20T22:36:14.118Z,21.53
2024-01-20T22:38:43.274Z,20.07
2024-01-20T22:41:11.790Z,20.40
2024-01-20T22:43:40.047Z,21.60
2024-01-20T22:46:18.793Z,20.70
2024-01-20T22:48:46.997Z,20.67
2024-01-20T22:51:22.801Z,20.10
2024-01-20T22:53:51.477Z,20.53
2024-01-20T22:56:22.334Z,20.20
2024-01-20T22:58:50.505Z,21.70
2024-01-20T23:01:20.757Z,22.43
2024-01-20T23:03:51.698Z,20.10
2024-01-20T23:06:19.923Z,20.73
2024-01-20T23:08:52.147Z,21.10
2024-01-20T23:11:23.210Z,21.00
2024-01-20T23:13:51.370Z,22.33
2024-01-20T23:16:20.744Z,21.27
2024-01-20T23:18:49.073Z,21.17
2024-01-20T23:21:20.605Z,20.63
2024-01-20T23:23:49.045Z,19.77
2024-01-20T23:26:17.922Z,21.37
2024-01-20T23:28:46.849Z,20.27
2024-01-20T23:31:16.880Z,24.37
2024-01-20T23:33:49.793Z,20.70
2024-01-20T23:36:21.118Z,22.00
2024-01-20T23:38:52.304Z,21.63
2024-01-20T23:41:21.067Z,21.77
2024-01-20T23:43:49.779Z,20.63
2024-01-20T23:46:17.987Z,20.27
2024-01-20T23:48:47.493Z,21.07
2024-01-20T23:51:16.452Z,22.03
2024-01-20T23:53:45.605Z,22.73
2024-01-20T23:56:13.631Z,20.90
2024-01-20T23:58:45.207Z,21.23
